Time;durP1;ratioP1;P1;durP2;ratioP2;P2;SDS_P1;SDS_P2;PMS_P1;PMS_P2;Temp;Humidity;BMP_temperature;BMP_pressure;BME280_temperature;BME280_humidity;BME280_pressure;Samples;Min_cycle;Max_cycle;Signal;HPM_P1;HPM_P2
2022/06/09 00:00:10;;;;;;;12.02;10.73;;;;;;;16.69;100.00;98809.59;5092510;28;20017;-76
2022/06/09 00:02:38;;;;;;;12.13;10.95;;;;;;;16.66;100.00;98808.03;5092004;28;20058;-76
2022/06/09 00:05:05;;;;;;;12.88;11.55;;;;;;;16.59;100.00;98795.53;5092270;28;20024;-76
2022/06/09 00:07:31;;;;;;;12.95;11.75;;;;;;;16.63;100.00;98808.28;5092261;28;20058;-76
2022/06/09 00:10:26;;;;;;;12.75;11.45;;;;;;;16.60;100.00;98803.31;5092047;28;20020;-76
2022/06/09 00:12:52;;;;;;;12.43;11.23;;;;;;;16.54;100.00;98790.69;5029458;28;20124;-76
2022/06/09 00:15:17;;;;;;;11.27;10.25;;;;;;;16.50;100.00;98783.19;5029631;28;20627;-76
2022/06/09 00:17:44;;;;;;;12.07;10.98;;;;;;;16.53;100.00;98799.53;5029337;28;20042;-76
2022/06/09 00:20:12;;;;;;;12.77;11.57;;;;;;;16.51;100.00;98792.72;5029479;28;20111;-76
2022/06/09 00:22:37;;;;;;;11.27;10.27;;;;;;;16.46;100.00;98783.44;5029189;28;20108;-76
2022/06/09 00:25:03;;;;;;;12.50;11.30;;;;;;;16.51;100.00;98790.94;5029363;28;20116;-76
2022/06/09 00:27:29;;;;;;;12.02;10.82;;;;;;;16.45;100.00;98787.03;5029430;28;20042;-76
2022/06/09 00:29:54;;;;;;;12.73;11.52;;;;;;;16.39;100.00;98781.44;5029193;28;20038;-76
2022/06/09 00:32:20;;;;;;;12.55;11.40;;;;;;;16.36;100.00;98776.47;5031775;28;20048;-76
2022/06/09 00:34:45;;;;;;;13.45;12.15;;;;;;;16.43;100.00;98778.47;5033347;28;20064;-76
2022/06/09 00:37:11;;;;;;;14.00;12.60;;;;;;;16.45;100.00;98778.31;5033412;28;20038;-76
2022/06/09 00:39:36;;;;;;;14.15;12.75;;;;;;;16.43;100.00;98769.72;5033134;28;20031;-76
2022/06/09 00:42:02;;;;;;;14.30;12.75;;;;;;;16.43;100.00;98782.84;5033601;28;20099;-76
2022/06/09 00:44:29;;;;;;;13.00;11.80;;;;;;;16.43;100.00;98782.84;5033248;28;20525;-76
2022/06/09 00:46:58;;;;;;;13.73;12.48;;;;;;;16.42;100.00;98768.06;5033073;28;20785;-76
2022/06/09 00:49:32;;;;;;;14.30;12.90;;;;;;;16.32;100.00;98757.50;5059202;28;20032;-76
2022/06/09 00:52:04;;;;;;;15.40;13.88;;;;;;;16.35;100.00;98759.03;5094273;28;20383;-76
2022/06/09 00:54:45;;;;;;;16.92;15.13;;;;;;;16.35;100.00;98756.38;5095863;28;20024;-76
2022/06/09 00:57:19;;;;;;;15.02;13.63;;;;;;;16.35;100.00;98766.91;5095724;28;20481;-76
2022/06/09 00:59:50;;;;;;;15.13;13.73;;;;;;;16.34;100.00;98768.69;5095471;28;20028;-76
2022/06/09 01:02:18;;;;;;;15.65;14.15;;;;;;;16.29;100.00;98759.56;5095451;28;20526;-76
2022/06/09 01:04:45;;;;;;;14.95;13.55;;;;;;;16.30;100.00;98767.28;5077269;28;20077;-76
2022/06/09 01:07:16;;;;;;;15.30;13.65;;;;;;;16.22;100.00;98756.59;5095511;28;20480;-76
2022/06/09 01:09:42;;;;;;;14.88;13.38;;;;;;;16.21;100.00;98755.75;5095486;28;20069;-76
2022/06/09 01:12:29;;;;;;;15.43;13.93;;;;;;;16.19;100.00;98752.44;5095483;28;20032;-76
2022/06/09 01:15:01;;;;;;;14.85;13.35;;;;;;;16.24;100.00;98753.84;5095147;28;20680;-76
2022/06/09 01:17:36;;;;;;;17.55;15.38;;;;;;;16.24;100.00;98745.97;5095746;28;20047;-76
2022/06/09 01:20:07;;;;;;;15.13;13.65;;;;;;;16.20;100.00;98743.59;5095146;28;20023;-76
2022/06/09 01:22:35;;;;;;;16.17;14.63;;;;;;;16.25;100.00;98750.25;5095150;28;20053;-76
2022/06/09 01:25:07;;;;;;;15.65;14.15;;;;;;;16.21;100.00;98747.06;5094959;28;20031;-76
2022/06/09 01:27:59;;;;;;;15.43;13.93;;;;;;;16.13;100.00;98734.56;5095205;28;20056;-76
2022/06/09 01:30:58;;;;;;;16.00;14.40;;;;;;;16.16;100.00;98742.19;5095297;28;20028;-76
2022/06/09 01:33:29;;;;;;;15.50;14.02;;;;;;;16.12;100.00;98753.91;5095108;28;20026;-76
2022/06/09 01:36:06;;;;;;;15.35;13.88;;;;;;;16.03;100.00;98740.72;5094930;28;20077;-76
2022/06/09 01:38:47;;;;;;;15.63;14.20;;;;;;;16.06;100.00;98743.09;5094991;28;20050;-76
2022/06/09 01:41:14;;;;;;;16.05;14.43;;;;;;;16.05;100.00;98736.16;5094971;28;20020;-76
2022/06/09 01:43:39;;;;;;;17.27;15.40;;;;;;;15.96;100.00;98729.88;5092122;28;20459;-76
2022/06/09 01:46:08;;;;;;;15.65;14.05;;;;;;;15.95;100.00;98734.31;5094750;28;20052;-76
2022/06/09 01:48:35;;;;;;;16.50;14.90;;;;;;;15.96;100.00;98733.34;5094973;28;20035;-76
2022/06/09 01:51:13;;;;;;;16.08;14.45;;;;;;;15.87;100.00;98707.03;5094876;28;20107;-76
2022/06/09 01:54:04;;;;;;;16.38;14.77;;;;;;;15.96;100.00;98735.97;5094660;28;20528;-76
2022/06/09 01:56:43;;;;;;;18.00;15.07;;;;;;;15.95;100.00;98733.47;5094634;28;20055;-76
2022/06/09 01:59:16;;;;;;;16.40;14.90;;;;;;;15.94;100.00;98722.16;5094661;28;20077;-76
2022/06/09 02:01:48;;;;;;;16.30;14.68;;;;;;;15.90;100.00;98723.38;5094246;28;20367;-76
2022/06/09 02:04:20;;;;;;;16.60;15.00;;;;;;;15.90;100.00;98722.53;5094489;28;20111;-76
2022/06/09 02:06:47;;;;;;;15.93;14.27;;;;;;;15.89;100.00;98715.63;5094153;28;20043;-76
2022/06/09 02:09:12;;;;;;;16.50;14.98;;;;;;;15.92;100.00;98710.09;5094218;28;20055;-76
2022/06/09 02:11:55;;;;;;;17.45;15.65;;;;;;;15.85;100.00;98708.97;5094264;28;20059;-76
2022/06/09 02:14:24;;;;;;;16.13;14.50;;;;;;;15.91;100.00;98716.31;5094196;28;20494;-76
2022/06/09 02:16:50;;;;;;;16.83;15.13;;;;;;;15.89;100.00;98707.75;5093888;28;20028;-76
2022/06/09 02:19:15;;;;;;;17.23;15.60;;;;;;;15.90;100.00;98704.97;5094004;28;20055;-76
2022/06/09 02:21:41;;;;;;;16.55;14.85;;;;;;;15.90;100.00;98712.03;5093758;28;20647;-76
2022/06/09 02:24:06;;;;;;;16.85;15.25;;;;;;;15.87;100.00;98715.72;5094016;28;20077;-76
2022/06/09 02:26:32;;;;;;;16.52;14.82;;;;;;;15.87;100.00;98717.53;5094303;28;20052;-76
2022/06/09 02:28:57;;;;;;;16.17;14.48;;;;;;;15.83;100.00;98713.50;5093803;28;20078;-76
2022/06/09 02:31:24;;;;;;;17.02;15.23;;;;;;;15.76;100.00;98702.69;5094055;28;20035;-76
2022/06/09 02:33:51;;;;;;;16.48;14.98;;;;;;;15.75;100.00;98713.28;5093512;28;20081;-76
2022/06/09 02:36:17;;;;;;;17.08;15.38;;;;;;;15.73;100.00;98720.47;5093572;28;20028;-76
2022/06/09 02:38:43;;;;;;;16.13;14.57;;;;;;;15.66;100.00;98714.88;5093581;28;20367;-76
2022/06/09 02:41:09;;;;;;;16.55;14.85;;;;;;;15.70;100.00;98722.38;5093764;28;20036;-76
2022/06/09 02:43:35;;;;;;;16.52;14.95;;;;;;;15.63;100.00;98715.97;5093651;28;20078;-76
2022/06/09 02:46:01;;;;;;;16.50;14.90;;;;;;;15.66;100.00;98728.00;5093384;28;20020;-76
2022/06/09 02:48:27;;;;;;;16.20;14.60;;;;;;;15.64;100.00;98733.41;5093459;28;20051;-76
2022/06/09 02:50:53;;;;;;;16.48;14.82;;;;;;;15.63;100.00;98739.59;5093055;28;20047;-76
2022/06/09 02:53:19;;;;;;;16.88;15.18;;;;;;;15.61;100.00;98741.50;5093450;28;20502;-76
2022/06/09 02:55:45;;;;;;;16.15;14.65;;;;;;;15.62;100.00;98744.94;5092957;28;20100;-76
2022/06/09 02:58:11;;;;;;;15.77;14.18;;;;;;;15.56;100.00;98742.81;5093337;28;20459;-76
2022/06/09 03:00:37;;;;;;;16.38;14.88;;;;;;;15.60;100.00;98760.00;5093230;28;20035;-76
2022/06/09 03:03:05;;;;;;;15.90;14.38;;;;;;;15.60;100.00;98760.00;5093158;28;20460;-76
2022/06/09 03:05:33;;;;;;;17.55;15.77;;;;;;;15.60;100.00;98758.19;5093175;28;20115;-76
2022/06/09 03:07:59;;;;;;;19.88;16.35;;;;;;;15.71;100.00;98781.78;5092950;28;20429;-76
2022/06/09 03:10:24;;;;;;;17.63;15.80;;;;;;;15.73;100.00;98788.75;5093127;28;20024;-76
2022/06/09 03:12:50;;;;;;;16.75;15.05;;;;;;;15.73;100.00;98783.47;5092853;28;20032;-76
2022/06/09 03:15:18;;;;;;;16.77;15.18;;;;;;;15.78;100.00;98783.94;5093286;28;20069;-76
2022/06/09 03:17:44;;;;;;;17.63;15.93;;;;;;;15.82;100.00;98783.56;5092861;28;20028;-76
2022/06/09 03:20:14;;;;;;;17.65;16.05;;;;;;;15.86;100.00;98771.00;5092545;28;20032;-76
2022/06/09 03:22:39;;;;;;;17.65;15.95;;;;;;;16.03;100.00;98777.50;5092981;28;20071;-76
2022/06/09 03:25:05;;;;;;;17.30;15.70;;;;;;;16.08;100.00;98772.69;5092413;28;20115;-76
2022/06/09 03:27:31;;;;;;;19.58;17.58;;;;;;;16.10;100.00;98770.78;5092743;28;20028;-76
2022/06/09 03:29:56;;;;;;;19.60;17.55;;;;;;;16.23;100.00;98781.94;5092494;28;20024;-76
2022/06/09 03:32:22;;;;;;;20.13;18.23;;;;;;;16.24;100.00;98764.38;5092571;28;20181;-76
2022/06/09 03:34:48;;;;;;;19.70;17.73;;;;;;;16.39;100.00;98795.44;5092579;28;20032;-76
2022/06/09 03:37:14;;;;;;;20.30;18.23;;;;;;;16.39;100.00;98784.94;5092550;28;20070;-76
2022/06/09 03:39:39;;;;;;;22.58;19.70;;;;;;;16.50;100.00;98793.69;5092959;28;20032;-76
2022/06/09 03:42:05;;;;;;;20.90;18.90;;;;;;;16.54;100.00;98792.47;5092333;28;20516;-76
2022/06/09 03:44:31;;;;;;;20.65;18.65;;;;;;;16.55;100.00;98791.50;5092367;28;20024;-76
2022/06/09 03:46:56;;;;;;;20.90;18.75;;;;;;;16.60;100.00;98789.31;5092130;28;20478;-76
2022/06/09 03:49:21;;;;;;;19.88;17.88;;;;;;;16.57;100.00;98769.41;5092242;28;20462;-76
2022/06/09 03:51:47;;;;;;;21.95;19.73;;;;;;;16.63;100.00;98779.38;5092225;28;20659;-76
2022/06/09 03:54:14;;;;;;;23.40;20.05;;;;;;;16.63;100.00;98779.38;5092370;28;20039;-76
2022/06/09 03:56:40;;;;;;;21.00;19.00;;;;;;;16.71;100.00;98781.34;5092421;28;20568;-76
2022/06/09 03:59:05;;;;;;;21.65;19.45;;;;;;;16.68;100.00;98769.28;5092192;28;20030;-76
2022/06/09 04:01:31;;;;;;;20.52;18.42;;;;;;;16.74;100.00;98778.50;5092361;28;20028;-76
2022/06/09 04:03:57;;;;;;;19.58;17.45;;;;;;;16.75;100.00;98776.69;5092057;28;20096;-76
2022/06/09 04:06:25;;;;;;;21.10;19.05;;;;;;;16.80;100.00;98785.84;5091649;28;20532;-76
2022/06/09 04:08:51;;;;;;;20.77;18.67;;;;;;;16.83;100.00;98780.34;5092123;28;20166;-76
2022/06/09 04:11:18;;;;;;;21.25;19.15;;;;;;;16.85;100.00;98777.56;5092226;28;20103;-76
2022/06/09 04:13:44;;;;;;;20.60;18.73;;;;;;;16.86;100.00;98779.25;5092067;28;20036;-76
2022/06/09 04:16:22;;;;;;;20.10;18.10;;;;;;;16.91;100.00;98779.69;5073642;28;20390;-76
2022/06/09 04:18:47;;;;;;;21.45;19.50;;;;;;;16.99;100.00;98785.09;5092205;28;20051;-76
2022/06/09 04:21:13;;;;;;;19.95;17.88;;;;;;;17.02;100.00;98787.44;5091935;28;20020;-76
2022/06/09 04:23:38;;;;;;;21.23;19.05;;;;;;;17.04;100.00;98789.97;5092058;28;20651;-76
2022/06/09 04:26:04;;;;;;;21.13;19.02;;;;;;;17.06;100.00;98794.13;5091852;28;20099;-76
2022/06/09 04:28:29;;;;;;;21.17;18.67;;;;;;;17.10;100.00;98792.88;5091973;28;20053;-76
2022/06/09 04:30:54;;;;;;;19.42;17.63;;;;;;;17.10;100.00;98782.34;5091593;28;20051;-76
2022/06/09 04:33:20;;;;;;;20.15;18.10;;;;;;;17.16;100.00;98795.00;5092045;28;20161;-76
2022/06/09 04:35:45;;;;;;;20.50;18.45;;;;;;;17.16;100.00;98791.53;5091907;28;20597;-76
2022/06/09 04:38:12;;;;;;;20.75;18.65;;;;;;;17.20;100.00;98795.56;5091800;28;20109;-76
2022/06/09 04:40:40;;;;;;;21.80;19.58;;;;;;;17.19;100.00;98793.88;5091914;28;20032;-76
2022/06/09 04:43:08;;;;;;;22.15;19.50;;;;;;;17.15;100.00;98788.06;5091622;28;20054;-76
2022/06/09 04:45:33;;;;;;;20.42;18.38;;;;;;;17.15;100.00;98780.19;5091645;28;20020;-76
2022/06/09 04:48:00;;;;;;;21.65;19.40;;;;;;;17.24;100.00;98791.69;5091753;28;20402;-76
2022/06/09 04:50:25;;;;;;;22.35;20.08;;;;;;;17.23;100.00;98786.53;5091658;28;20028;-76
2022/06/09 04:52:51;;;;;;;22.00;19.80;;;;;;;17.21;100.00;98781.44;5091616;28;20101;-76
2022/06/09 04:55:17;;;;;;;22.48;20.05;;;;;;;17.32;100.00;98785.72;5091762;28;20078;-76
2022/06/09 04:57:43;;;;;;;22.48;19.90;;;;;;;17.32;100.00;98781.34;5091683;28;20028;-76
2022/06/09 05:00:12;;;;;;;21.38;19.27;;;;;;;17.42;100.00;98794.50;5091372;28;20024;-76
2022/06/09 05:02:37;;;;;;;21.70;19.52;;;;;;;17.47;100.00;98789.66;5091572;28;20483;-76
2022/06/09 05:05:04;;;;;;;20.10;18.25;;;;;;;17.54;100.00;98795.22;5091499;28;20046;-76
2022/06/09 05:07:29;;;;;;;20.98;18.92;;;;;;;17.60;100.00;98798.13;5091683;28;20055;-76
2022/06/09 05:09:55;;;;;;;20.70;18.70;;;;;;;17.64;100.00;98811.84;5091425;28;20295;-76
2022/06/09 05:12:21;;;;;;;21.17;19.27;;;;;;;17.61;100.00;98801.59;5091604;28;20024;-76
2022/06/09 05:14:47;;;;;;;20.80;18.65;;;;;;;17.60;100.00;98805.19;5091543;28;20035;-76
2022/06/09 05:17:13;;;;;;;20.60;18.50;;;;;;;17.64;100.00;98811.84;5073826;28;20024;-76
2022/06/09 05:19:38;;;;;;;20.67;18.50;;;;;;;17.57;100.00;98793.16;5095465;28;20031;-76
2022/06/09 05:22:04;;;;;;;21.48;19.48;;;;;;;17.69;100.00;98813.09;5095125;28;20031;-76
2022/06/09 05:24:29;;;;;;;21.17;18.83;;;;;;;17.63;100.00;98808.38;5095143;28;20024;-76
2022/06/09 05:26:54;;;;;;;22.95;20.08;;;;;;;17.67;100.00;98808.94;5094909;28;20067;-76
2022/06/09 05:29:20;;;;;;;19.58;17.70;;;;;;;17.71;100.00;98815.63;5095345;28;20020;-76
2022/06/09 05:31:45;;;;;;;20.35;18.33;;;;;;;17.72;100.00;98814.63;5095255;28;20028;-76
2022/06/09 05:34:11;;;;;;;18.35;16.65;;;;;;;17.75;100.00;98819.66;5095032;28;20039;-76
2022/06/09 05:36:37;;;;;;;19.30;17.40;;;;;;;17.78;100.00;98821.19;5095064;28;20024;-76
2022/06/09 05:47:16;;;;;;;21.73;19.60;;;;;;;17.88;100.00;98819.41;5094824;28;20038;-76
2022/06/09 05:49:43;;;;;;;23.60;18.33;;;;;;;17.85;100.00;98806.50;5094785;28;20032;-76
2022/06/09 05:52:09;;;;;;;21.33;19.17;;;;;;;17.90;100.00;98820.06;5094377;28;20029;-76
2022/06/09 05:54:34;;;;;;;22.05;19.73;;;;;;;17.84;100.00;98823.28;5095013;28;20036;-76
2022/06/09 05:56:59;;;;;;;23.63;21.25;;;;;;;17.82;100.00;98833.94;5094497;28;20028;-76
2022/06/09 05:59:25;;;;;;;24.50;22.20;;;;;;;17.77;100.00;98833.50;5094561;28;20028;-76
2022/06/09 06:01:52;;;;;;;24.98;22.58;;;;;;;17.74;100.00;98825.91;5094304;28;20437;-76
2022/06/09 06:04:17;;;;;;;25.23;22.55;;;;;;;17.69;100.00;98823.63;5094229;28;20046;-76
2022/06/09 06:06:43;;;;;;;23.95;21.55;;;;;;;17.67;100.00;98827.38;5094351;28;20028;-76
2022/06/09 06:09:15;;;;;;;23.70;21.58;;;;;;;17.71;100.00;98837.50;5094299;28;20031;-76
2022/06/09 06:11:41;;;;;;;24.17;21.58;;;;;;;17.73;100.00;98831.25;5094454;28;20077;-76
2022/06/09 06:14:08;;;;;;;25.13;22.55;;;;;;;17.74;100.00;98830.28;5094123;28;20028;-76
2022/06/09 06:16:34;;;;;;;22.92;20.40;;;;;;;17.77;100.00;98833.50;5094282;28;20028;-76
2022/06/09 06:19:00;;;;;;;20.58;18.55;;;;;;;17.70;100.00;98819.22;5093852;28;20059;-76
2022/06/09 06:21:26;;;;;;;22.17;20.00;;;;;;;17.83;100.00;98833.00;5094067;28;20101;-76
2022/06/09 06:23:53;;;;;;;21.17;19.17;;;;;;;17.88;100.00;98840.47;5076008;28;20031;-76
2022/06/09 06:26:19;;;;;;;20.92;18.83;;;;;;;17.92;100.00;98833.97;5093947;28;20020;-76
2022/06/09 06:28:45;;;;;;;19.80;17.90;;;;;;;18.05;100.00;98845.06;5093875;28;20115;-76
2022/06/09 06:31:10;;;;;;;20.38;18.35;;;;;;;18.13;100.00;98839.09;5093577;28;20039;-76
2022/06/09 06:33:36;;;;;;;20.23;18.23;;;;;;;18.31;100.00;98847.94;5093945;28;20028;-76
2022/06/09 06:36:01;;;;;;;20.08;18.08;;;;;;;18.53;100.00;98849.44;5093586;28;20032;-76
2022/06/09 06:38:27;;;;;;;22.77;20.25;;;;;;;18.95;100.00;98847.28;5093934;28;20024;-76
2022/06/09 06:40:54;;;;;;;22.52;20.30;;;;;;;19.18;100.00;98841.66;5093873;28;20463;-76
2022/06/09 06:43:21;;;;;;;22.52;20.33;;;;;;;19.39;100.00;98857.25;5093564;28;20098;-76
2022/06/09 06:45:46;;;;;;;20.55;18.55;;;;;;;19.85;100.00;98851.03;5075519;28;20118;-76
2022/06/09 06:48:12;;;;;;;21.55;19.52;;;;;;;20.33;100.00;98857.75;5093377;28;20386;-76
2022/06/09 06:50:37;;;;;;;21.38;19.27;;;;;;;20.97;100.00;98857.53;5093510;28;20024;-76
2022/06/09 06:53:02;;;;;;;21.65;19.63;;;;;;;21.21;100.00;98859.50;5093358;28;20070;-76
2022/06/09 06:55:29;;;;;;;20.27;18.27;;;;;;;21.33;100.00;98858.25;5093369;28;20128;-76
2022/06/09 06:57:55;;;;;;;21.02;18.63;;;;;;;21.38;100.00;98858.59;5093422;28;20027;-76
2022/06/09 07:00:23;;;;;;;22.15;19.90;;;;;;;21.49;100.00;98860.13;5093135;28;20024;-76
2022/06/09 07:02:49;;;;;;;23.17;20.77;;;;;;;22.14;100.00;98855.81;5093100;28;20474;-76
2022/06/09 07:05:16;;;;;;;21.33;19.15;;;;;;;22.16;100.00;98863.59;5093252;28;20111;-76
2022/06/09 07:07:42;;;;;;;20.50;18.40;;;;;;;22.18;100.00;98856.34;5093330;28;20028;-76
2022/06/09 07:10:09;;;;;;;22.98;20.80;;;;;;;22.12;100.00;98856.94;5092904;28;20119;-76
2022/06/09 07:12:35;;;;;;;23.17;20.77;;;;;;;21.84;100.00;98859.91;5093310;28;20620;-76
2022/06/09 07:15:01;;;;;;;22.73;20.48;;;;;;;21.43;100.00;98862.41;5092904;28;20051;-76
2022/06/09 07:17:26;;;;;;;20.58;18.55;;;;;;;21.18;100.00;98871.22;5092986;28;20030;-76
2022/06/09 07:19:52;;;;;;;20.95;18.92;;;;;;;21.19;100.00;98867.56;5093175;28;20027;-76
2022/06/09 07:22:19;;;;;;;24.27;21.88;;;;;;;21.46;100.00;98876.34;5092946;28;20540;-76
2022/06/09 07:24:45;;;;;;;22.70;20.60;;;;;;;21.44;100.00;98865.91;5092961;28;20024;-76
2022/06/09 07:27:10;;;;;;;22.35;20.23;;;;;;;21.64;100.00;98863.81;5092688;28;20021;-76
2022/06/09 07:29:36;;;;;;;18.85;17.05;;;;;;;22.61;100.00;98868.41;5092868;28;20536;-76
2022/06/09 07:32:02;;;;;;;16.58;14.95;;;;;;;25.32;98.86;98869.28;5092543;28;20386;-76
2022/06/09 07:34:27;;;;;;;17.48;15.70;;;;;;;27.52;86.60;98866.78;5092969;28;20467;-76
2022/06/09 07:36:53;;;;;;;18.10;15.98;;;;;;;29.26;76.99;98882.81;5092898;28;20028;-76
2022/06/09 07:39:19;;;;;;;14.75;13.38;;;;;;;31.54;68.88;98872.72;5092714;28;20081;-76
2022/06/09 07:41:45;;;;;;;13.98;12.55;;;;;;;31.84;65.57;98874.66;5092144;28;20449;-76
2022/06/09 07:44:11;;;;;;;13.20;12.00;;;;;;;30.81;66.75;98876.19;5092400;28;20079;-76
2022/06/09 07:46:39;;;;;;;13.60;12.30;;;;;;;30.19;69.31;98877.91;5092547;28;20048;-76
2022/06/09 07:49:06;;;;;;;13.55;12.25;;;;;;;29.25;71.46;98883.88;5092600;28;20031;-76
2022/06/09 07:51:32;;;;;;;13.43;12.23;;;;;;;28.28;73.92;98886.16;5092772;28;20059;-76
2022/06/09 07:53:58;;;;;;;14.07;11.60;;;;;;;28.88;73.47;98878.13;5092493;28;20059;-76
2022/06/09 07:56:24;;;;;;;11.77;10.68;;;;;;;32.05;65.23;98882.22;5092283;28;20092;-76
2022/06/09 07:58:49;;;;;;;10.32;9.43;;;;;;;34.53;55.58;98872.75;5092400;28;20111;-76
2022/06/09 08:01:17;;;;;;;10.23;9.25;;;;;;;35.20;49.13;98882.69;5092008;28;20039;-77
2022/06/09 08:03:42;;;;;;;9.57;8.65;;;;;;;33.27;51.22;98887.06;5092379;28;20487;-77
2022/06/09 08:06:09;;;;;;;10.40;9.50;;;;;;;31.59;53.70;98885.50;5092178;28;20067;-77
2022/06/09 08:08:35;;;;;;;8.80;8.02;;;;;;;30.36;56.92;98880.06;5092315;28;20081;-76
2022/06/09 08:11:00;;;;;;;10.15;9.25;;;;;;;29.05;59.38;98875.88;5092256;28;20028;-77
2022/06/09 08:13:26;;;;;;;10.15;9.15;;;;;;;27.88;63.37;98881.72;5091955;28;20028;-77
2022/06/09 08:15:53;;;;;;;10.43;9.50;;;;;;;27.15;66.66;98879.53;5092091;28;20020;-76
2022/06/09 08:18:18;;;;;;;9.82;8.93;;;;;;;26.64;69.13;98873.63;5092016;28;20035;-76
2022/06/09 08:20:44;;;;;;;10.20;9.23;;;;;;;26.43;69.33;98885.13;5092203;28;20028;-76
2022/06/09 08:23:22;;;;;;;8.55;7.75;;;;;;;26.49;68.62;98887.03;5091904;28;20035;-77
2022/06/09 08:25:49;;;;;;;9.90;9.00;;;;;;;26.75;68.48;98897.09;5092023;28;20027;-76
2022/06/09 08:28:20;;;;;;;8.23;7.43;;;;;;;27.02;67.75;98887.44;5091731;28;20380;-77
2022/06/09 08:30:48;;;;;;;8.45;7.72;;;;;;;26.82;67.87;98885.44;5091915;28;20496;-76
2022/06/09 08:33:14;;;;;;;8.30;7.50;;;;;;;26.58;67.36;98886.69;5091931;28;20028;-76
2022/06/09 08:35:40;;;;;;;9.05;8.15;;;;;;;26.36;68.52;98891.19;5090725;28;20028;-76
2022/06/09 08:38:07;;;;;;;10.63;9.63;;;;;;;25.99;69.18;98886.94;5091721;28;20107;-76
2022/06/09 08:40:51;;;;;;;9.63;8.82;;;;;;;25.82;71.89;98889.00;5091810;28;20479;-76
2022/06/09 08:43:40;;;;;;;11.05;10.05;;;;;;;25.66;73.15;98891.84;5091794;28;20024;-76
2022/06/09 08:46:31;;;;;;;11.15;10.15;;;;;;;25.44;73.39;98882.16;5091952;28;20491;-76
2022/06/09 08:49:02;;;;;;;12.50;11.30;;;;;;;25.46;74.18;98874.81;5091743;28;20021;-76
2022/06/09 08:51:42;;;;;;;;;;;;;;;25.83;74.46;98895.16;5092016;28;20027;-76
2022/06/09 08:54:16;;;;;;;;;;;;;;;25.94;72.27;98891.19;5095695;28;19918;-76
2022/06/09 08:56:41;;;;;;;8.65;7.75;;;;;;;26.07;71.03;98886.00;5095899;28;19911;-76
2022/06/09 08:59:20;;;;;;;8.07;7.38;;;;;;;26.10;69.76;98889.09;5095556;28;20028;-76
2022/06/09 09:01:53;;;;;;;8.05;7.35;;;;;;;26.07;69.92;98888.66;5095555;28;20578;-76
2022/06/09 09:04:23;;;;;;;7.57;6.78;;;;;;;26.09;70.07;98895.47;5095676;28;20016;-76
2022/06/09 09:07:07;;;;;;;6.93;5.85;;;;;;;26.26;69.57;98900.56;5095963;28;20024;-76
2022/06/09 09:09:35;;;;;;;7.03;5.97;;;;;;;26.28;69.53;98906.53;5095564;28;20091;-76
2022/06/09 09:12:07;;;;;;;7.40;6.78;;;;;;;26.31;68.96;98912.31;5095408;28;20060;-77
2022/06/09 09:14:59;;;;;;;7.35;6.68;;;;;;;26.29;68.65;98902.84;5095728;28;20059;-76
2022/06/09 09:17:29;;;;;;;8.05;7.25;;;;;;;26.24;68.82;98898.06;5095249;28;20024;-76
2022/06/09 09:20:04;;;;;;;8.02;7.32;;;;;;;26.18;69.84;98903.34;5095444;28;20370;-76
2022/06/09 09:22:54;;;;;;;8.40;7.45;;;;;;;26.27;70.84;98910.22;5094993;28;20026;-76
2022/06/09 09:25:23;;;;;;;8.65;7.88;;;;;;;26.31;70.58;98896.28;5095106;28;20050;-77
2022/06/09 09:28:04;;;;;;;24.27;9.98;;;;;;;26.12;69.14;98897.78;5095577;28;20078;-76
2022/06/09 09:30:37;;;;;;;11.63;9.00;;;;;;;26.13;69.59;98903.94;5094975;28;20154;-76
2022/06/09 09:33:02;;;;;;;8.95;7.90;;;;;;;26.21;69.87;98903.81;5076816;28;20035;-76
2022/06/09 09:35:41;;;;;;;9.05;8.18;;;;;;;26.24;69.61;98897.25;5095176;28;20024;-76
2022/06/09 09:38:15;;;;;;;10.68;9.68;;;;;;;26.00;69.77;98895.75;5095150;28;20043;-76
2022/06/09 09:40:43;;;;;;;9.73;8.93;;;;;;;25.96;70.84;98897.19;5095230;28;20024;-76
2022/06/09 09:43:36;;;;;;;10.52;9.63;;;;;;;26.11;72.45;98905.94;5094888;28;20047;-76
2022/06/09 09:46:02;;;;;;;11.02;10.00;;;;;;;26.03;72.46;98895.38;5093240;28;20536;-76
2022/06/09 09:48:33;;;;;;;10.68;9.68;;;;;;;25.98;73.75;98909.28;5094703;28;20028;-77
2022/06/09 09:51:12;;;;;;;10.88;9.68;;;;;;;25.92;73.67;98910.06;5076460;28;20032;-76
2022/06/09 09:53:46;;;;;;;11.02;10.02;;;;;;;25.86;73.68;98914.28;5094574;28;20028;-76
2022/06/09 09:56:17;;;;;;;10.18;9.30;;;;;;;25.74;73.56;98926.41;5094394;28;20024;-76
2022/06/09 09:58:46;;;;;;;11.95;10.85;;;;;;;25.64;74.37;98928.56;5094723;28;20024;-76
2022/06/09 10:01:14;;;;;;;14.15;12.80;;;;;;;25.43;76.13;98931.97;5094420;28;20441;-77
2022/06/09 10:09:51;;;;;;;12.77;11.55;;;;;;;24.44;80.73;98917.94;5094181;28;20062;-76
2022/06/09 10:12:26;;;;;;;13.88;12.57;;;;;;;24.28;81.46;98923.31;5094140;28;20046;-76
2022/06/09 10:15:05;;;;;;;14.52;12.98;;;;;;;24.20;82.79;98934.84;5094610;28;20509;-76
2022/06/09 10:17:49;;;;;;;13.55;12.35;;;;;;;24.20;83.38;98929.53;5093946;28;20537;-76
2022/06/09 10:20:32;;;;;;;13.93;12.63;;;;;;;24.22;83.95;98934.66;5094093;28;20054;-76
2022/06/09 10:23:06;;;;;;;13.57;12.27;;;;;;;24.22;83.60;98930.16;5094161;28;20446;-76
2022/06/09 10:25:35;;;;;;;13.88;12.57;;;;;;;24.20;83.11;98934.03;5093840;28;20169;-76
2022/06/09 10:28:13;;;;;;;14.93;13.43;;;;;;;24.15;83.09;98932.72;5051182;28;20033;-76
2022/06/09 10:30:45;;;;;;;14.52;13.07;;;;;;;24.07;83.16;98939.94;5051300;28;20033;-76
2022/06/09 10:33:17;;;;;;;13.13;11.95;;;;;;;24.02;84.22;98939.59;5051301;28;20037;-76
2022/06/09 10:36:00;;;;;;;14.85;13.35;;;;;;;23.94;84.66;98935.16;5051265;28;20047;-76
2022/06/09 10:38:32;;;;;;;14.43;12.77;;;;;;;23.80;85.48;98939.38;5034169;28;20448;-76
2022/06/09 10:41:04;;;;;;;15.32;13.93;;;;;;;23.62;86.00;98936.13;5051175;28;20107;-76
2022/06/09 10:43:57;;;;;;;14.98;13.57;;;;;;;23.60;86.91;98943.44;5050888;28;20037;-76
2022/06/09 10:46:44;;;;;;;15.27;13.77;;;;;;;23.58;87.59;98934.78;5050794;28;20515;-76
2022/06/09 10:55:17;;;;;;;14.68;13.13;;;;;;;23.71;85.47;98939.59;5051179;28;20083;-76
2022/06/09 10:58:15;;;;;;;15.45;13.88;;;;;;;23.59;83.77;98941.75;5050872;28;20127;-76
2022/06/09 11:00:45;;;;;;;15.93;14.35;;;;;;;23.43;83.82;98932.03;5093669;28;20027;-76
2022/06/09 11:03:17;;;;;;;15.07;13.60;;;;;;;23.38;84.50;98945.81;5093422;28;20084;-76
2022/06/09 11:06:11;;;;;;;17.58;15.93;;;;;;;23.24;85.72;98951.84;5093343;28;20024;-76
2022/06/09 11:08:54;;;;;;;16.60;14.88;;;;;;;22.98;88.09;98940.59;5093010;28;20032;-76
2022/06/09 11:11:44;;;;;;;16.40;14.75;;;;;;;22.87;89.67;98953.19;5092939;28;20530;-76
2022/06/09 11:14:21;;;;;;;18.33;16.63;;;;;;;22.81;90.52;98948.56;5093361;28;20054;-76
2022/06/09 11:17:05;;;;;;;18.48;16.65;;;;;;;22.60;91.15;98938.44;5093017;28;20107;-76
2022/06/09 11:19:58;;;;;;;17.83;16.13;;;;;;;22.53;91.90;98952.53;5093070;28;20020;-76
2022/06/09 11:22:35;;;;;;;19.95;17.95;;;;;;;22.39;92.37;98941.56;5092905;28;20364;-76
2022/06/09 11:25:22;;;;;;;17.92;16.23;;;;;;;22.26;93.09;98937.75;5092835;28;20507;-76
2022/06/09 11:28:06;;;;;;;15.35;13.90;;;;;;;22.21;93.66;98940.06;5093368;28;20383;-77
2022/06/09 11:30:56;;;;;;;15.60;14.10;;;;;;;22.16;94.38;98936.06;5092772;28;20027;-76
2022/06/09 11:33:39;;;;;;;16.42;14.13;;;;;;;22.06;94.42;98930.03;5074542;28;20028;-76
2022/06/09 11:36:19;;;;;;;16.63;14.93;;;;;;;22.10;94.79;98941.97;5093010;28;20063;-76
2022/06/09 11:39:23;;;;;;;17.05;15.23;;;;;;;22.08;94.86;98943.13;5093134;28;20103;-76
2022/06/09 11:42:08;;;;;;;15.43;13.93;;;;;;;22.01;95.63;98931.53;5030083;28;20077;-76
2022/06/09 11:44:40;;;;;;;19.25;17.48;;;;;;;22.02;95.98;98941.13;5029746;28;20036;-76
2022/06/09 11:47:11;;;;;;;18.17;16.45;;;;;;;21.99;96.19;98944.09;5029914;28;20033;-76